sensor_id;sensor_type;location;lat;lon;timestamp;temperature;humidity
15341;DHT22;7770;52.158;5.372;2023-01-29T00:00:39;4.00;99.90
15341;DHT22;7770;52.158;5.372;2023-01-29T00:03:25;4.00;99.90
15341;DHT22;7770;52.158;5.372;2023-01-29T00:06:11;4.00;99.90
15341;DHT22;7770;52.158;5.372;2023-01-29T00:08:57;4.00;99.90
15341;DHT22;7770;52.158;5.372;2023-01-29T00:11:43;3.90;99.90
15341;DHT22;7770;52.158;5.372;2023-01-29T00:14:29;3.90;99.90
15341;DHT22;7770;52.158;5.372;2023-01-29T00:17:15;3.90;99.90
15341;DHT22;7770;52.158;5.372;2023-01-29T00:20:01;3.90;99.90
15341;DHT22;7770;52.158;5.372;2023-01-29T00:22:47;3.90;99.90
15341;DHT22;7770;52.158;5.372;2023-01-29T00:25:34;3.90;99.90
15341;DHT22;7770;52.158;5.372;2023-01-29T00:28:20;4.00;99.90
15341;DHT22;7770;52.158;5.372;2023-01-29T00:31:20;4.00;99.90
15341;DHT22;7770;52.158;5.372;2023-01-29T00:34:07;4.00;99.90
15341;DHT22;7770;52.158;5.372;2023-01-29T00:36:53;4.00;99.90
15341;DHT22;7770;52.158;5.372;2023-01-29T00:39:49;4.00;99.90
15341;DHT22;7770;52.158;5.372;2023-01-29T00:42:35;4.00;99.90
15341;DHT22;7770;52.158;5.372;2023-01-29T00:45:40;4.00;99.90
15341;DHT22;7770;52.158;5.372;2023-01-29T00:48:26;4.00;99.90
15341;DHT22;7770;52.158;5.372;2023-01-29T00:51:12;4.00;99.90
15341;DHT22;7770;52.158;5.372;2023-01-29T00:53:58;4.00;99.90
15341;DHT22;7770;52.158;5.372;2023-01-29T00:56:47;3.90;99.90
15341;DHT22;7770;52.158;5.372;2023-01-29T00:59:33;3.90;99.90
15341;DHT22;7770;52.158;5.372;2023-01-29T01:02:19;3.90;99.90
15341;DHT22;7770;52.158;5.372;2023-01-29T01:05:24;3.90;99.90
15341;DHT22;7770;52.158;5.372;2023-01-29T01:08:11;3.90;99.90
15341;DHT22;7770;52.158;5.372;2023-01-29T01:11:15;3.90;99.90
15341;DHT22;7770;52.158;5.372;2023-01-29T01:14:02;3.90;99.90
15341;DHT22;7770;52.158;5.372;2023-01-29T01:16:48;3.90;99.90
15341;DHT22;7770;52.158;5.372;2023-01-29T01:19:35;3.90;99.90
15341;DHT22;7770;52.158;5.372;2023-01-29T01:22:21;3.90;99.90
15341;DHT22;7770;52.158;5.372;2023-01-29T01:25:07;3.90;99.90
15341;DHT22;7770;52.158;5.372;2023-01-29T01:27:55;3.90;99.90
15341;DHT22;7770;52.158;5.372;2023-01-29T01:30:42;4.00;99.90
15341;DHT22;7770;52.158;5.372;2023-01-29T01:33:29;4.00;99.90
15341;DHT22;7770;52.158;5.372;2023-01-29T01:36:15;4.00;99.90
15341;DHT22;7770;52.158;5.372;2023-01-29T01:39:02;3.90;99.90
15341;DHT22;7770;52.158;5.372;2023-01-29T01:41:48;4.00;99.90
15341;DHT22;7770;52.158;5.372;2023-01-29T01:44:53;4.00;99.90
15341;DHT22;7770;52.158;5.372;2023-01-29T01:47:57;4.00;99.90
15341;DHT22;7770;52.158;5.372;2023-01-29T01:50:55;3.90;99.90
15341;DHT22;7770;52.158;5.372;2023-01-29T01:54:02;3.90;99.90
15341;DHT22;7770;52.158;5.372;2023-01-29T01:56:58;4.00;99.90
15341;DHT22;7770;52.158;5.372;2023-01-29T01:59:58;4.00;99.90
15341;DHT22;7770;52.158;5.372;2023-01-29T02:02:48;4.00;99.90
15341;DHT22;7770;52.158;5.372;2023-01-29T02:05:54;4.00;99.90
15341;DHT22;7770;52.158;5.372;2023-01-29T02:09:12;3.90;99.90
15341;DHT22;7770;52.158;5.372;2023-01-29T02:12:20;3.90;99.90
15341;DHT22;7770;52.158;5.372;2023-01-29T02:15:07;3.90;99.90
15341;DHT22;7770;52.158;5.372;2023-01-29T02:17:54;3.90;99.90
15341;DHT22;7770;52.158;5.372;2023-01-29T02:20:42;3.90;99.90
15341;DHT22;7770;52.158;5.372;2023-01-29T02:28:00;3.90;99.90
15341;DHT22;7770;52.158;5.372;2023-01-29T02:31:26;3.90;99.90
15341;DHT22;7770;52.158;5.372;2023-01-29T02:34:26;3.90;99.90
15341;DHT22;7770;52.158;5.372;2023-01-29T02:37:48;3.90;99.90
15341;DHT22;7770;52.158;5.372;2023-01-29T02:40:58;3.80;99.90
15341;DHT22;7770;52.158;5.372;2023-01-29T02:43:54;3.90;99.90
15341;DHT22;7770;52.158;5.372;2023-01-29T02:46:45;3.90;99.90
15341;DHT22;7770;52.158;5.372;2023-01-29T02:49:47;3.90;99.90
15341;DHT22;7770;52.158;5.372;2023-01-29T02:55:50;3.90;99.90
15341;DHT22;7770;52.158;5.372;2023-01-29T02:58:47;3.90;99.90
15341;DHT22;7770;52.158;5.372;2023-01-29T03:01:58;3.90;99.90
15341;DHT22;7770;52.158;5.372;2023-01-29T03:04:53;3.90;99.90
15341;DHT22;7770;52.158;5.372;2023-01-29T03:07:54;3.90;99.90
15341;DHT22;7770;52.158;5.372;2023-01-29T03:10:49;3.90;99.90
15341;DHT22;7770;52.158;5.372;2023-01-29T03:13:44;3.90;99.90
15341;DHT22;7770;52.158;5.372;2023-01-29T03:16:50;3.90;99.90
15341;DHT22;7770;52.158;5.372;2023-01-29T03:19:40;3.90;99.90
15341;DHT22;7770;52.158;5.372;2023-01-29T03:22:29;3.90;99.90
15341;DHT22;7770;52.158;5.372;2023-01-29T03:25:17;3.90;99.90
15341;DHT22;7770;52.158;5.372;2023-01-29T03:28:25;3.90;99.90
15341;DHT22;7770;52.158;5.372;2023-01-29T03:31:31;3.90;99.90
15341;DHT22;7770;52.158;5.372;2023-01-29T03:34:43;3.90;99.90
15341;DHT22;7770;52.158;5.372;2023-01-29T03:37:40;3.90;99.90
15341;DHT22;7770;52.158;5.372;2023-01-29T03:43:49;3.80;99.90
15341;DHT22;7770;52.158;5.372;2023-01-29T03:46:54;3.80;99.90
15341;DHT22;7770;52.158;5.372;2023-01-29T03:53:20;3.70;99.90
15341;DHT22;7770;52.158;5.372;2023-01-29T03:59:15;3.80;99.90
15341;DHT22;7770;52.158;5.372;2023-01-29T04:02:10;3.80;99.90
15341;DHT22;7770;52.158;5.372;2023-01-29T04:05:14;3.70;99.90
15341;DHT22;7770;52.158;5.372;2023-01-29T04:08:07;3.70;99.90
15341;DHT22;7770;52.158;5.372;2023-01-29T04:11:00;3.70;99.90
15341;DHT22;7770;52.158;5.372;2023-01-29T04:13:49;3.70;99.90
15341;DHT22;7770;52.158;5.372;2023-01-29T04:16:39;3.60;99.90
15341;DHT22;7770;52.158;5.372;2023-01-29T04:19:27;3.70;99.90
15341;DHT22;7770;52.158;5.372;2023-01-29T04:22:27;3.60;99.90
15341;DHT22;7770;52.158;5.372;2023-01-29T04:25:20;3.60;99.90
15341;DHT22;7770;52.158;5.372;2023-01-29T04:28:46;3.70;99.90
15341;DHT22;7770;52.158;5.372;2023-01-29T04:35:00;3.60;99.90
15341;DHT22;7770;52.158;5.372;2023-01-29T04:38:31;3.60;99.90
15341;DHT22;7770;52.158;5.372;2023-01-29T04:41:46;3.60;99.90
15341;DHT22;7770;52.158;5.372;2023-01-29T04:45:00;3.60;99.90
15341;DHT22;7770;52.158;5.372;2023-01-29T04:48:10;3.60;99.90
15341;DHT22;7770;52.158;5.372;2023-01-29T04:54:51;3.60;99.90
15341;DHT22;7770;52.158;5.372;2023-01-29T05:01:06;3.50;99.90
15341;DHT22;7770;52.158;5.372;2023-01-29T05:03:54;3.40;99.90
15341;DHT22;7770;52.158;5.372;2023-01-29T05:06:41;3.40;99.90
15341;DHT22;7770;52.158;5.372;2023-01-29T05:09:28;3.40;99.90
15341;DHT22;7770;52.158;5.372;2023-01-29T05:12:15;3.40;99.90
15341;DHT22;7770;52.158;5.372;2023-01-29T05:15:07;3.40;99.90
15341;DHT22;7770;52.158;5.372;2023-01-29T05:17:55;3.40;99.90
15341;DHT22;7770;52.158;5.372;2023-01-29T05:20:46;3.50;99.90
15341;DHT22;7770;52.158;5.372;2023-01-29T05:23:33;3.50;99.90
15341;DHT22;7770;52.158;5.372;2023-01-29T05:26:20;3.50;99.90
15341;DHT22;7770;52.158;5.372;2023-01-29T05:29:25;3.50;99.90
15341;DHT22;7770;52.158;5.372;2023-01-29T05:32:11;3.50;99.90
15341;DHT22;7770;52.158;5.372;2023-01-29T05:34:58;3.50;99.90
15341;DHT22;7770;52.158;5.372;2023-01-29T05:37:44;3.50;99.90
15341;DHT22;7770;52.158;5.372;2023-01-29T05:40:30;3.50;99.90
15341;DHT22;7770;52.158;5.372;2023-01-29T05:43:21;3.40;99.90
15341;DHT22;7770;52.158;5.372;2023-01-29T05:46:09;3.40;99.90
15341;DHT22;7770;52.158;5.372;2023-01-29T05:48:55;3.50;99.90
15341;DHT22;7770;52.158;5.372;2023-01-29T05:51:41;3.50;99.90
15341;DHT22;7770;52.158;5.372;2023-01-29T05:54:27;3.50;99.90
15341;DHT22;7770;52.158;5.372;2023-01-29T05:57:13;3.50;99.90
15341;DHT22;7770;52.158;5.372;2023-01-29T05:59:59;3.60;99.90
15341;DHT22;7770;52.158;5.372;2023-01-29T06:02:46;3.50;99.90
15341;DHT22;7770;52.158;5.372;2023-01-29T06:05:32;3.50;99.90
15341;DHT22;7770;52.158;5.372;2023-01-29T06:08:18;3.40;99.90
15341;DHT22;7770;52.158;5.372;2023-01-29T06:11:07;3.40;99.90
15341;DHT22;7770;52.158;5.372;2023-01-29T06:13:57;3.30;99.90
15341;DHT22;7770;52.158;5.372;2023-01-29T06:16:43;3.30;99.90
15341;DHT22;7770;52.158;5.372;2023-01-29T06:19:29;3.30;99.90
15341;DHT22;7770;52.158;5.372;2023-01-29T06:22:15;3.30;99.90
15341;DHT22;7770;52.158;5.372;2023-01-29T06:25:02;3.30;99.90
15341;DHT22;7770;52.158;5.372;2023-01-29T06:27:51;3.30;99.90
15341;DHT22;7770;52.158;5.372;2023-01-29T06:30:37;3.30;99.90
15341;DHT22;7770;52.158;5.372;2023-01-29T06:33:23;3.30;99.90
15341;DHT22;7770;52.158;5.372;2023-01-29T06:36:09;3.30;99.90
15341;DHT22;7770;52.158;5.372;2023-01-29T06:38:55;3.20;99.90
15341;DHT22;7770;52.158;5.372;2023-01-29T06:41:41;3.30;99.90
15341;DHT22;7770;52.158;5.372;2023-01-29T06:44:27;3.30;99.90
15341;DHT22;7770;52.158;5.372;2023-01-29T06:47:13;3.30;99.90
15341;DHT22;7770;52.158;5.372;2023-01-29T06:49:59;3.30;99.90
15341;DHT22;7770;52.158;5.372;2023-01-29T06:52:45;3.30;99.90
15341;DHT22;7770;52.158;5.372;2023-01-29T06:55:31;3.30;99.90
15341;DHT22;7770;52.158;5.372;2023-01-29T06:58:19;3.40;99.90
15341;DHT22;7770;52.158;5.372;2023-01-29T07:01:07;3.40;99.90
15341;DHT22;7770;52.158;5.372;2023-01-29T07:03:54;3.40;99.90
15341;DHT22;7770;52.158;5.372;2023-01-29T07:06:41;3.40;99.90
15341;DHT22;7770;52.158;5.372;2023-01-29T07:09:27;3.40;99.90
15341;DHT22;7770;52.158;5.372;2023-01-29T07:12:13;3.40;99.90
15341;DHT22;7770;52.158;5.372;2023-01-29T07:14:59;3.40;99.90
15341;DHT22;7770;52.158;5.372;2023-01-29T07:17:59;3.40;99.90
15341;DHT22;7770;52.158;5.372;2023-01-29T07:20:46;3.40;99.90
15341;DHT22;7770;52.158;5.372;2023-01-29T07:23:33;3.40;99.90
15341;DHT22;7770;52.158;5.372;2023-01-29T07:26:19;3.30;99.90
15341;DHT22;7770;52.158;5.372;2023-01-29T07:29:05;3.40;99.90
15341;DHT22;7770;52.158;5.372;2023-01-29T07:31:51;3.30;99.90
15341;DHT22;7770;52.158;5.372;2023-01-29T07:34:37;3.30;99.90
15341;DHT22;7770;52.158;5.372;2023-01-29T07:37:23;3.30;99.90
15341;DHT22;7770;52.158;5.372;2023-01-29T07:40:10;3.30;99.90
15341;DHT22;7770;52.158;5.372;2023-01-29T07:43:02;3.30;99.90
15341;DHT22;7770;52.158;5.372;2023-01-29T07:45:50;3.40;99.90
15341;DHT22;7770;52.158;5.372;2023-01-29T07:48:36;3.40;99.90
15341;DHT22;7770;52.158;5.372;2023-01-29T07:51:22;3.40;99.90
15341;DHT22;7770;52.158;5.372;2023-01-29T07:54:09;3.40;99.90
15341;DHT22;7770;52.158;5.372;2023-01-29T07:56:55;3.40;99.90
15341;DHT22;7770;52.158;5.372;2023-01-29T07:59:41;3.40;99.90
15341;DHT22;7770;52.158;5.372;2023-01-29T08:02:28;3.40;99.90
15341;DHT22;7770;52.158;5.372;2023-01-29T08:05:14;3.40;99.90
15341;DHT22;7770;52.158;5.372;2023-01-29T08:08:00;3.40;99.90
15341;DHT22;7770;52.158;5.372;2023-01-29T08:10:46;3.40;99.90
15341;DHT22;7770;52.158;5.372;2023-01-29T08:13:32;3.50;99.90
15341;DHT22;7770;52.158;5.372;2023-01-29T08:16:18;3.50;99.90
15341;DHT22;7770;52.158;5.372;2023-01-29T08:19:04;3.50;99.90
15341;DHT22;7770;52.158;5.372;2023-01-29T08:21:50;3.50;99.90
15341;DHT22;7770;52.158;5.372;2023-01-29T08:24:36;3.50;99.90
15341;DHT22;7770;52.158;5.372;2023-01-29T08:27:22;3.60;99.90
15341;DHT22;7770;52.158;5.372;2023-01-29T08:30:09;3.70;99.90
15341;DHT22;7770;52.158;5.372;2023-01-29T08:32:55;3.70;99.90
15341;DHT22;7770;52.158;5.372;2023-01-29T08:35:41;3.70;99.90
15341;DHT22;7770;52.158;5.372;2023-01-29T08:38:27;3.70;99.90
15341;DHT22;7770;52.158;5.372;2023-01-29T08:41:13;3.80;99.90
15341;DHT22;7770;52.158;5.372;2023-01-29T08:43:59;3.80;99.90
15341;DHT22;7770;52.158;5.372;2023-01-29T08:46:46;3.80;99.90
15341;DHT22;7770;52.158;5.372;2023-01-29T08:49:33;3.90;99.90
15341;DHT22;7770;52.158;5.372;2023-01-29T08:52:19;3.80;99.90
15341;DHT22;7770;52.158;5.372;2023-01-29T08:55:05;3.90;99.90
15341;DHT22;7770;52.158;5.372;2023-01-29T08:57:51;3.90;99.90
15341;DHT22;7770;52.158;5.372;2023-01-29T09:00:38;4.00;99.90
15341;DHT22;7770;52.158;5.372;2023-01-29T09:03:24;4.00;99.90
15341;DHT22;7770;52.158;5.372;2023-01-29T09:06:12;4.00;99.90
15341;DHT22;7770;52.158;5.372;2023-01-29T09:08:58;4.00;99.90
15341;DHT22;7770;52.158;5.372;2023-01-29T09:11:44;4.00;99.90
15341;DHT22;7770;52.158;5.372;2023-01-29T09:14:30;4.10;99.90
15341;DHT22;7770;52.158;5.372;2023-01-29T09:17:17;4.00;99.90
15341;DHT22;7770;52.158;5.372;2023-01-29T09:20:03;4.00;99.90
15341;DHT22;7770;52.158;5.372;2023-01-29T09:22:53;4.10;99.90
15341;DHT22;7770;52.158;5.372;2023-01-29T09:25:42;4.10;99.90
15341;DHT22;7770;52.158;5.372;2023-01-29T09:28:28;4.10;99.90
15341;DHT22;7770;52.158;5.372;2023-01-29T09:31:14;4.10;99.90
15341;DHT22;7770;52.158;5.372;2023-01-29T09:34:00;4.20;99.90
15341;DHT22;7770;52.158;5.372;2023-01-29T09:36:46;4.20;99.90
15341;DHT22;7770;52.158;5.372;2023-01-29T09:39:32;4.20;99.90
15341;DHT22;7770;52.158;5.372;2023-01-29T09:45:20;4.30;99.90
15341;DHT22;7770;52.158;5.372;2023-01-29T09:48:11;4.30;99.90
15341;DHT22;7770;52.158;5.372;2023-01-29T09:51:01;4.40;99.90
15341;DHT22;7770;52.158;5.372;2023-01-29T09:57:16;4.40;99.90
15341;DHT22;7770;52.158;5.372;2023-01-29T10:00:05;4.50;99.90
15341;DHT22;7770;52.158;5.372;2023-01-29T10:06:26;4.60;99.90
15341;DHT22;7770;52.158;5.372;2023-01-29T10:13:02;4.70;99.90
15341;DHT22;7770;52.158;5.372;2023-01-29T10:16:14;4.80;99.90
15341;DHT22;7770;52.158;5.372;2023-01-29T10:22:59;4.70;99.90
15341;DHT22;7770;52.158;5.372;2023-01-29T10:25:57;4.60;99.90
15341;DHT22;7770;52.158;5.372;2023-01-29T10:28:46;4.60;99.90
15341;DHT22;7770;52.158;5.372;2023-01-29T10:31:38;4.60;99.90
15341;DHT22;7770;52.158;5.372;2023-01-29T10:34:26;4.50;99.90
15341;DHT22;7770;52.158;5.372;2023-01-29T10:37:38;4.60;99.90
15341;DHT22;7770;52.158;5.372;2023-01-29T10:40:39;4.60;99.90
15341;DHT22;7770;52.158;5.372;2023-01-29T10:43:48;4.70;99.90
15341;DHT22;7770;52.158;5.372;2023-01-29T10:47:03;4.70;99.90
15341;DHT22;7770;52.158;5.372;2023-01-29T10:50:05;4.80;99.90
15341;DHT22;7770;52.158;5.372;2023-01-29T10:53:32;4.80;99.90
15341;DHT22;7770;52.158;5.372;2023-01-29T10:56:47;4.70;99.90
15341;DHT22;7770;52.158;5.372;2023-01-29T10:59:59;4.80;99.90
15341;DHT22;7770;52.158;5.372;2023-01-29T11:02:52;4.80;99.90
15341;DHT22;7770;52.158;5.372;2023-01-29T11:05:44;4.80;99.90
15341;DHT22;7770;52.158;5.372;2023-01-29T11:08:57;4.80;99.90
15341;DHT22;7770;52.158;5.372;2023-01-29T11:12:36;4.70;99.90
15341;DHT22;7770;52.158;5.372;2023-01-29T11:15:29;4.70;99.90
15341;DHT22;7770;52.158;5.372;2023-01-29T11:18:17;4.80;99.90
15341;DHT22;7770;52.158;5.372;2023-01-29T11:21:03;4.80;99.90
15341;DHT22;7770;52.158;5.372;2023-01-29T11:24:03;4.70;99.90
15341;DHT22;7770;52.158;5.372;2023-01-29T11:27:13;4.80;99.90
15341;DHT22;7770;52.158;5.372;2023-01-29T11:30:01;4.80;99.90
15341;DHT22;7770;52.158;5.372;2023-01-29T11:33:17;4.80;99.90
15341;DHT22;7770;52.158;5.372;2023-01-29T11:36:29;4.70;99.90
15341;DHT22;7770;52.158;5.372;2023-01-29T11:39:23;4.70;99.90
15341;DHT22;7770;52.158;5.372;2023-01-29T11:42:22;4.70;99.90
15341;DHT22;7770;52.158;5.372;2023-01-29T11:45:25;4.70;99.90
15341;DHT22;7770;52.158;5.372;2023-01-29T11:48:22;4.70;99.90
15341;DHT22;7770;52.158;5.372;2023-01-29T11:51:23;4.70;99.90
15341;DHT22;7770;52.158;5.372;2023-01-29T11:54:15;4.60;99.90
15341;DHT22;7770;52.158;5.372;2023-01-29T11:57:02;4.70;99.90
15341;DHT22;7770;52.158;5.372;2023-01-29T11:59:50;4.70;99.90
15341;DHT22;7770;52.158;5.372;2023-01-29T12:02:41;4.70;99.90
15341;DHT22;7770;52.158;5.372;2023-01-29T12:05:29;4.70;99.90
15341;DHT22;7770;52.158;5.372;2023-01-29T12:08:17;4.70;99.90
15341;DHT22;7770;52.158;5.372;2023-01-29T12:11:30;4.70;99.90
15341;DHT22;7770;52.158;5.372;2023-01-29T12:14:30;4.70;99.90
15341;DHT22;7770;52.158;5.372;2023-01-29T12:17:22;4.70;99.90
15341;DHT22;7770;52.158;5.372;2023-01-29T12:20:14;4.70;99.90
15341;DHT22;7770;52.158;5.372;2023-01-29T12:26:33;4.80;99.90
15341;DHT22;7770;52.158;5.372;2023-01-29T12:29:39;4.80;99.90
15341;DHT22;7770;52.158;5.372;2023-01-29T12:32:48;4.80;99.90
15341;DHT22;7770;52.158;5.372;2023-01-29T12:35:46;4.70;99.90
15341;DHT22;7770;52.158;5.372;2023-01-29T12:38:35;4.80;99.90
15341;DHT22;7770;52.158;5.372;2023-01-29T12:44:49;4.80;99.90
15341;DHT22;7770;52.158;5.372;2023-01-29T12:47:43;4.80;99.90
15341;DHT22;7770;52.158;5.372;2023-01-29T12:50:35;4.80;99.90
15341;DHT22;7770;52.158;5.372;2023-01-29T12:53:28;4.80;99.90
15341;DHT22;7770;52.158;5.372;2023-01-29T12:56:38;4.80;99.90
15341;DHT22;7770;52.158;5.372;2023-01-29T12:59:29;4.80;99.90
15341;DHT22;7770;52.158;5.372;2023-01-29T13:05:40;4.80;99.90
15341;DHT22;7770;52.158;5.372;2023-01-29T13:08:36;4.80;99.90
15341;DHT22;7770;52.158;5.372;2023-01-29T13:11:38;4.90;99.90
15341;DHT22;7770;52.158;5.372;2023-01-29T13:14:53;4.90;99.90
15341;DHT22;7770;52.158;5.372;2023-01-29T13:17:55;4.90;99.90
15341;DHT22;7770;52.158;5.372;2023-01-29T13:20:44;5.00;99.90
15341;DHT22;7770;52.158;5.372;2023-01-29T13:23:36;5.00;99.90
15341;DHT22;7770;52.158;5.372;2023-01-29T13:26:23;5.20;99.90
15341;DHT22;7770;52.158;5.372;2023-01-29T13:29:23;5.30;99.90
15341;DHT22;7770;52.158;5.372;2023-01-29T13:32:10;5.40;99.90
15341;DHT22;7770;52.158;5.372;2023-01-29T13:34:59;5.40;99.90
15341;DHT22;7770;52.158;5.372;2023-01-29T13:37:52;5.50;99.90
15341;DHT22;7770;52.158;5.372;2023-01-29T13:40:48;5.60;99.90
15341;DHT22;7770;52.158;5.372;2023-01-29T13:43:37;5.60;99.90
15341;DHT22;7770;52.158;5.372;2023-01-29T13:46:25;5.60;99.90
15341;DHT22;7770;52.158;5.372;2023-01-29T13:49:27;5.50;99.90
15341;DHT22;7770;52.158;5.372;2023-01-29T13:52:33;5.50;99.90
15341;DHT22;7770;52.158;5.372;2023-01-29T13:55:21;5.40;99.90
15341;DHT22;7770;52.158;5.372;2023-01-29T14:04:31;5.50;99.90
15341;DHT22;7770;52.158;5.372;2023-01-29T14:10:29;5.50;99.90
15341;DHT22;7770;52.158;5.372;2023-01-29T14:18:55;5.60;99.90
15341;DHT22;7770;52.158;5.372;2023-01-29T14:21:48;5.60;99.90
15341;DHT22;7770;52.158;5.372;2023-01-29T14:24:35;5.60;99.90
15341;DHT22;7770;52.158;5.372;2023-01-29T14:27:23;5.70;99.90
15341;DHT22;7770;52.158;5.372;2023-01-29T14:30:16;5.60;99.90
15341;DHT22;7770;52.158;5.372;2023-01-29T14:33:03;5.50;99.90
15341;DHT22;7770;52.158;5.372;2023-01-29T14:35:52;5.50;99.90
15341;DHT22;7770;52.158;5.372;2023-01-29T14:38:46;5.50;99.90
15341;DHT22;7770;52.158;5.372;2023-01-29T14:41:34;5.50;99.90
15341;DHT22;7770;52.158;5.372;2023-01-29T14:56:26;5.50;99.90
15341;DHT22;7770;52.158;5.372;2023-01-29T14:59:23;5.40;99.90
15341;DHT22;7770;52.158;5.372;2023-01-29T15:02:19;5.40;99.90
15341;DHT22;7770;52.158;5.372;2023-01-29T15:05:31;5.40;99.90
15341;DHT22;7770;52.158;5.372;2023-01-29T15:08:25;5.40;99.90
15341;DHT22;7770;52.158;5.372;2023-01-29T15:11:23;5.40;99.90
15341;DHT22;7770;52.158;5.372;2023-01-29T15:14:34;5.40;99.90
15341;DHT22;7770;52.158;5.372;2023-01-29T15:17:28;5.40;99.90
15341;DHT22;7770;52.158;5.372;2023-01-29T15:23:28;5.50;99.90
15341;DHT22;7770;52.158;5.372;2023-01-29T15:26:18;5.40;99.90
15341;DHT22;7770;52.158;5.372;2023-01-29T15:29:24;5.40;99.90
15341;DHT22;7770;52.158;5.372;2023-01-29T15:32:32;5.40;99.90
15341;DHT22;7770;52.158;5.372;2023-01-29T15:38:20;5.30;99.90
15341;DHT22;7770;52.158;5.372;2023-01-29T15:41:20;5.30;99.90
15341;DHT22;7770;52.158;5.372;2023-01-29T15:44:16;5.30;99.90
15341;DHT22;7770;52.158;5.372;2023-01-29T15:47:04;5.20;99.90
15341;DHT22;7770;52.158;5.372;2023-01-29T15:49:51;5.30;99.90
15341;DHT22;7770;52.158;5.372;2023-01-29T15:52:37;5.20;99.90
15341;DHT22;7770;52.158;5.372;2023-01-29T15:55:24;5.20;99.90
15341;DHT22;7770;52.158;5.372;2023-01-29T15:58:14;5.20;99.90
15341;DHT22;7770;52.158;5.372;2023-01-29T16:01:02;5.20;99.90
15341;DHT22;7770;52.158;5.372;2023-01-29T16:03:49;5.20;99.90
15341;DHT22;7770;52.158;5.372;2023-01-29T16:06:36;5.20;99.90
15341;DHT22;7770;52.158;5.372;2023-01-29T16:09:25;5.20;99.90
15341;DHT22;7770;52.158;5.372;2023-01-29T16:12:12;5.20;99.90
15341;DHT22;7770;52.158;5.372;2023-01-29T16:15:00;5.10;99.90
15341;DHT22;7770;52.158;5.372;2023-01-29T16:17:47;5.10;99.90
15341;DHT22;7770;52.158;5.372;2023-01-29T16:20:42;5.00;99.90
15341;DHT22;7770;52.158;5.372;2023-01-29T16:23:35;4.90;99.90
15341;DHT22;7770;52.158;5.372;2023-01-29T16:26:35;4.80;99.90
15341;DHT22;7770;52.158;5.372;2023-01-29T16:29:33;4.80;99.90
15341;DHT22;7770;52.158;5.372;2023-01-29T16:32:20;4.80;99.90
15341;DHT22;7770;52.158;5.372;2023-01-29T16:35:12;4.80;99.90
15341;DHT22;7770;52.158;5.372;2023-01-29T16:38:06;4.70;99.90
15341;DHT22;7770;52.158;5.372;2023-01-29T16:47:14;4.70;99.90
15341;DHT22;7770;52.158;5.372;2023-01-29T16:50:31;4.70;99.90
15341;DHT22;7770;52.158;5.372;2023-01-29T16:53:20;4.60;99.90
15341;DHT22;7770;52.158;5.372;2023-01-29T16:56:09;4.50;99.90
15341;DHT22;7770;52.158;5.372;2023-01-29T16:58:55;4.50;99.90
15341;DHT22;7770;52.158;5.372;2023-01-29T17:01:42;4.50;99.90
15341;DHT22;7770;52.158;5.372;2023-01-29T17:04:28;4.50;99.90
15341;DHT22;7770;52.158;5.372;2023-01-29T17:07:15;4.40;99.90
15341;DHT22;7770;52.158;5.372;2023-01-29T17:10:06;4.40;99.90
15341;DHT22;7770;52.158;5.372;2023-01-29T17:13:01;4.40;99.90
15341;DHT22;7770;52.158;5.372;2023-01-29T17:15:49;4.40;99.90
15341;DHT22;7770;52.158;5.372;2023-01-29T17:18:35;4.40;99.90
15341;DHT22;7770;52.158;5.372;2023-01-29T17:21:22;4.40;99.90
15341;DHT22;7770;52.158;5.372;2023-01-29T17:24:08;4.50;99.90
15341;DHT22;7770;52.158;5.372;2023-01-29T17:26:54;4.40;99.90
15341;DHT22;7770;52.158;5.372;2023-01-29T17:29:40;4.40;99.90
15341;DHT22;7770;52.158;5.372;2023-01-29T17:32:26;4.40;99.90
15341;DHT22;7770;52.158;5.372;2023-01-29T17:35:14;4.40;99.90
15341;DHT22;7770;52.158;5.372;2023-01-29T17:38:01;4.40;99.90
15341;DHT22;7770;52.158;5.372;2023-01-29T17:41:02;4.40;99.90
15341;DHT22;7770;52.158;5.372;2023-01-29T17:43:51;4.40;99.90
15341;DHT22;7770;52.158;5.372;2023-01-29T17:46:37;4.40;99.90
15341;DHT22;7770;52.158;5.372;2023-01-29T17:49:26;4.40;99.90
15341;DHT22;7770;52.158;5.372;2023-01-29T17:52:13;4.40;99.90
15341;DHT22;7770;52.158;5.372;2023-01-29T17:54:59;4.40;99.90
15341;DHT22;7770;52.158;5.372;2023-01-29T17:57:45;4.40;99.90
15341;DHT22;7770;52.158;5.372;2023-01-29T18:00:31;4.40;99.90
15341;DHT22;7770;52.158;5.372;2023-01-29T18:03:17;4.40;99.90
15341;DHT22;7770;52.158;5.372;2023-01-29T18:06:06;4.40;99.90
15341;DHT22;7770;52.158;5.372;2023-01-29T18:08:52;4.40;99.90
15341;DHT22;7770;52.158;5.372;2023-01-29T18:11:39;4.40;99.90
15341;DHT22;7770;52.158;5.372;2023-01-29T18:14:25;4.40;99.90
15341;DHT22;7770;52.158;5.372;2023-01-29T18:17:11;4.50;99.90
15341;DHT22;7770;52.158;5.372;2023-01-29T18:19:58;4.50;99.90
15341;DHT22;7770;52.158;5.372;2023-01-29T18:22:44;4.50;99.90
15341;DHT22;7770;52.158;5.372;2023-01-29T18:25:32;4.50;99.90
15341;DHT22;7770;52.158;5.372;2023-01-29T18:28:18;4.50;99.90
15341;DHT22;7770;52.158;5.372;2023-01-29T18:31:04;4.50;99.90
15341;DHT22;7770;52.158;5.372;2023-01-29T18:33:50;4.50;99.90
15341;DHT22;7770;52.158;5.372;2023-01-29T18:36:36;4.50;99.90
15341;DHT22;7770;52.158;5.372;2023-01-29T18:39:22;4.60;99.90
15341;DHT22;7770;52.158;5.372;2023-01-29T18:42:09;4.60;99.90
15341;DHT22;7770;52.158;5.372;2023-01-29T18:44:55;4.60;99.90
15341;DHT22;7770;52.158;5.372;2023-01-29T18:47:41;4.60;99.90
15341;DHT22;7770;52.158;5.372;2023-01-29T18:50:27;4.60;99.90
15341;DHT22;7770;52.158;5.372;2023-01-29T18:53:13;4.60;99.90
15341;DHT22;7770;52.158;5.372;2023-01-29T18:56:00;4.60;99.90
15341;DHT22;7770;52.158;5.372;2023-01-29T18:58:54;4.60;99.90
15341;DHT22;7770;52.158;5.372;2023-01-29T19:01:40;4.60;99.90
15341;DHT22;7770;52.158;5.372;2023-01-29T19:04:26;4.60;99.90
15341;DHT22;7770;52.158;5.372;2023-01-29T19:07:13;4.60;99.90
15341;DHT22;7770;52.158;5.372;2023-01-29T19:09:59;4.60;99.90
15341;DHT22;7770;52.158;5.372;2023-01-29T19:12:46;4.60;99.90
15341;DHT22;7770;52.158;5.372;2023-01-29T19:15:33;4.60;99.90
15341;DHT22;7770;52.158;5.372;2023-01-29T19:18:19;4.60;99.90
15341;DHT22;7770;52.158;5.372;2023-01-29T19:21:10;4.60;99.90
15341;DHT22;7770;52.158;5.372;2023-01-29T19:23:57;4.60;99.90
15341;DHT22;7770;52.158;5.372;2023-01-29T19:26:43;4.60;99.90
15341;DHT22;7770;52.158;5.372;2023-01-29T19:29:29;4.60;99.90
15341;DHT22;7770;52.158;5.372;2023-01-29T19:32:15;4.60;99.90
15341;DHT22;7770;52.158;5.372;2023-01-29T19:35:01;4.70;99.90
15341;DHT22;7770;52.158;5.372;2023-01-29T19:37:47;4.70;99.90
15341;DHT22;7770;52.158;5.372;2023-01-29T19:40:34;4.70;99.90
15341;DHT22;7770;52.158;5.372;2023-01-29T19:43:20;4.70;99.90
15341;DHT22;7770;52.158;5.372;2023-01-29T19:46:06;4.70;99.90
15341;DHT22;7770;52.158;5.372;2023-01-29T19:48:52;4.70;99.90
15341;DHT22;7770;52.158;5.372;2023-01-29T19:51:41;4.70;99.90
15341;DHT22;7770;52.158;5.372;2023-01-29T19:54:27;4.70;99.90
15341;DHT22;7770;52.158;5.372;2023-01-29T19:57:14;4.70;99.90
15341;DHT22;7770;52.158;5.372;2023-01-29T20:00:00;4.70;99.90
15341;DHT22;7770;52.158;5.372;2023-01-29T20:02:46;4.80;99.90
15341;DHT22;7770;52.158;5.372;2023-01-29T20:05:34;4.80;99.90
15341;DHT22;7770;52.158;5.372;2023-01-29T20:08:22;4.80;99.90
15341;DHT22;7770;52.158;5.372;2023-01-29T20:11:11;4.80;99.90
15341;DHT22;7770;52.158;5.372;2023-01-29T20:14:00;4.90;99.90
15341;DHT22;7770;52.158;5.372;2023-01-29T20:16:46;4.90;99.90